createdAt,value
2023-03-12T00:01:35.744Z,1.20
2023-03-12T00:04:37.780Z,0.93
2023-03-12T00:07:39.682Z,1.10
2023-03-12T00:10:42.020Z,0.97
2023-03-12T00:13:44.524Z,1.23
2023-03-12T00:16:46.880Z,0.97
2023-03-12T00:19:53.578Z,1.07
2023-03-12T00:22:55.496Z,0.90
2023-03-12T00:26:02.545Z,0.90
2023-03-12T00:29:04.534Z,1.23
2023-03-12T00:32:06.890Z,1.27
2023-03-12T00:35:09.210Z,0.90
2023-03-12T00:38:11.024Z,1.17
2023-03-12T00:41:13.435Z,0.97
2023-03-12T00:44:15.343Z,0.90
2023-03-12T00:47:17.245Z,1.20
2023-03-12T00:50:19.130Z,1.07
2023-03-12T00:53:21.035Z,1.10
2023-03-12T00:56:23.078Z,1.10
2023-03-12T00:59:25.312Z,1.00
2023-03-12T01:02:27.221Z,0.90
2023-03-12T01:05:29.132Z,0.80
2023-03-12T01:08:31.583Z,1.00
2023-03-12T01:11:34.554Z,1.23
2023-03-12T01:14:36.451Z,1.13
2023-03-12T01:17:38.929Z,1.20
2023-03-12T01:20:41.233Z,0.97
2023-03-12T01:23:43.140Z,0.93
2023-03-12T01:26:45.777Z,1.47
2023-03-12T01:29:47.763Z,1.00
2023-03-12T01:32:49.700Z,1.10
2023-03-12T01:35:51.855Z,1.00
2023-03-12T01:38:56.192Z,1.57
2023-03-12T01:41:58.109Z,1.07
2023-03-12T01:45:02.070Z,1.33
2023-03-12T01:48:07.783Z,1.80
2023-03-12T01:51:11.558Z,1.30
2023-03-12T01:54:21.658Z,1.13
2023-03-12T01:57:39.758Z,1.20
2023-03-12T02:00:41.908Z,1.40
2023-03-12T02:03:46.811Z,1.10
2023-03-12T02:07:14.005Z,1.13
2023-03-12T02:10:16.902Z,1.13
2023-03-12T02:13:18.899Z,1.23
2023-03-12T02:16:20.842Z,1.20
2023-03-12T02:19:50.285Z,1.20
2023-03-12T02:23:10.913Z,1.13
2023-03-12T02:26:13.457Z,1.27
2023-03-12T02:29:15.483Z,1.07
2023-03-12T02:32:26.840Z,0.90
2023-03-12T02:35:28.882Z,1.20
2023-03-12T02:38:47.568Z,1.10
2023-03-12T02:41:57.911Z,1.17
2023-03-12T02:45:00.814Z,1.10
2023-03-12T02:48:03.720Z,1.10
2023-03-12T02:51:05.809Z,1.20
2023-03-12T02:54:08.658Z,1.60
2023-03-12T02:57:10.923Z,1.10
2023-03-12T03:00:14.859Z,1.30
2023-03-12T03:03:16.678Z,1.53
2023-03-12T03:06:18.787Z,0.90
2023-03-12T03:09:22.564Z,1.20
2023-03-12T03:12:24.778Z,1.40
2023-03-12T03:15:27.495Z,1.50
2023-03-12T03:18:30.299Z,1.60
2023-03-12T03:21:32.535Z,1.23
2023-03-12T03:24:36.358Z,1.10
2023-03-12T03:27:38.273Z,1.27
2023-03-12T03:30:40.892Z,1.40
2023-03-12T03:33:43.191Z,1.57
2023-03-12T03:36:45.069Z,1.10
2023-03-12T03:39:46.973Z,1.30
2023-03-12T03:42:48.947Z,1.10
2023-03-12T03:46:01.722Z,1.10
2023-03-12T03:49:03.684Z,1.07
2023-03-12T03:52:06.496Z,1.53
2023-03-12T03:55:09.001Z,1.53
2023-03-12T03:58:10.803Z,1.53
2023-03-12T04:01:14.509Z,1.47
2023-03-12T04:04:16.328Z,1.47
2023-03-12T04:07:18.445Z,1.53
2023-03-12T04:10:25.083Z,1.40
2023-03-12T04:13:26.947Z,1.20
2023-03-12T04:16:28.878Z,1.60
2023-03-12T04:19:30.913Z,1.30
2023-03-12T04:22:33.083Z,1.40
2023-03-12T04:25:34.987Z,1.60
2023-03-12T04:28:37.617Z,1.20
2023-03-12T04:31:39.605Z,1.30
2023-03-12T04:34:42.041Z,1.50
2023-03-12T04:37:43.941Z,1.20
2023-03-12T04:40:45.778Z,1.70
2023-03-12T04:44:00.903Z,1.60
2023-03-12T04:47:05.725Z,1.40
2023-03-12T04:50:08.533Z,1.60
2023-03-12T04:53:11.252Z,1.30
2023-03-12T04:56:13.266Z,1.50
2023-03-12T04:59:15.139Z,1.37
2023-03-12T05:02:17.468Z,1.23
2023-03-12T05:05:19.569Z,1.20
2023-03-12T05:08:21.819Z,1.40
2023-03-12T05:11:24.784Z,1.30
2023-03-12T05:14:43.888Z,2.20
2023-03-12T05:17:45.990Z,1.17
2023-03-12T05:20:48.260Z,1.20
2023-03-12T05:23:50.141Z,1.20
2023-03-12T05:26:52.299Z,1.50
2023-03-12T05:29:54.590Z,1.13
2023-03-12T05:32:56.474Z,0.80
2023-03-12T05:35:58.483Z,1.50
2023-03-12T05:39:00.357Z,1.60
2023-03-12T05:42:02.660Z,1.37
2023-03-12T05:45:05.898Z,1.10
2023-03-12T05:48:07.730Z,0.97
2023-03-12T05:51:09.635Z,1.33
2023-03-12T05:54:11.518Z,1.00
2023-03-12T05:57:13.402Z,1.20
2023-03-12T06:00:15.996Z,1.30
2023-03-12T06:03:18.058Z,2.20
2023-03-12T06:06:20.830Z,2.20
2023-03-12T06:09:23.308Z,1.77
2023-03-12T06:12:25.584Z,2.40
2023-03-12T06:15:27.427Z,2.00
2023-03-12T06:18:29.235Z,1.63
2023-03-12T06:21:33.557Z,1.60
2023-03-12T06:24:35.434Z,1.63
2023-03-12T06:27:37.880Z,1.53
2023-03-12T06:30:39.740Z,1.40
2023-03-12T06:33:42.210Z,1.40
2023-03-12T06:36:46.781Z,1.57
2023-03-12T06:39:48.712Z,2.67
2023-03-12T06:42:50.544Z,2.67
2023-03-12T06:45:55.712Z,2.97
2023-03-12T06:48:57.588Z,1.97
2023-03-12T06:51:59.540Z,2.10
2023-03-12T06:55:01.334Z,2.50
2023-03-12T06:58:04.893Z,2.30
2023-03-12T07:01:06.892Z,1.97
2023-03-12T07:04:08.813Z,1.57
2023-03-12T07:07:12.101Z,1.40
2023-03-12T07:10:13.992Z,1.37
2023-03-12T07:13:16.351Z,1.33
2023-03-12T07:16:18.299Z,1.37
2023-03-12T07:19:20.163Z,1.17
2023-03-12T07:22:22.849Z,1.40
2023-03-12T07:25:24.650Z,1.23
2023-03-12T07:28:26.554Z,1.40
2023-03-12T07:31:28.905Z,1.47
2023-03-12T07:34:30.993Z,1.43
2023-03-12T07:37:33.238Z,1.30
2023-03-12T07:40:36.053Z,1.10
2023-03-12T07:43:38.035Z,1.33
2023-03-12T07:46:40.298Z,1.23
2023-03-12T07:49:42.368Z,1.10
2023-03-12T07:52:45.644Z,1.20
2023-03-12T07:55:48.408Z,1.20
2023-03-12T07:58:51.035Z,1.40
2023-03-12T08:01:53.678Z,1.33
2023-03-12T08:04:55.675Z,1.10
2023-03-12T08:07:57.543Z,1.50
2023-03-12T08:11:00.672Z,1.30
2023-03-12T08:14:03.812Z,1.40
2023-03-12T08:17:06.183Z,1.30
2023-03-12T08:20:10.192Z,1.30
2023-03-12T08:23:12.783Z,1.17
2023-03-12T08:26:14.605Z,1.67
2023-03-12T08:29:17.141Z,1.20
2023-03-12T08:32:19.083Z,0.93
2023-03-12T08:35:21.099Z,1.10
2023-03-12T08:38:23.007Z,1.00
2023-03-12T08:41:24.925Z,1.13
2023-03-12T08:44:27.730Z,1.20
2023-03-12T08:47:29.592Z,1.30
2023-03-12T08:50:32.361Z,1.63
2023-03-12T08:53:37.375Z,2.50
2023-03-12T08:56:42.521Z,1.23
2023-03-12T08:59:44.448Z,0.90
2023-03-12T09:02:46.632Z,1.03
2023-03-12T09:05:50.293Z,1.03
2023-03-12T09:08:52.216Z,1.10
2023-03-12T09:11:55.212Z,0.93
2023-03-12T09:15:03.042Z,1.73
2023-03-12T09:18:05.699Z,2.10
2023-03-12T09:21:07.469Z,2.67
2023-03-12T09:24:11.131Z,1.33
2023-03-12T09:27:13.081Z,1.00
2023-03-12T09:30:18.380Z,1.43
2023-03-12T09:33:20.311Z,1.27
2023-03-12T09:36:22.791Z,1.40
2023-03-12T09:39:24.588Z,2.00
2023-03-12T09:42:48.256Z,1.50
2023-03-12T09:45:51.006Z,2.00
2023-03-12T09:48:56.825Z,2.00
2023-03-12T09:51:59.803Z,1.83
2023-03-12T09:55:15.222Z,1.80
2023-03-12T09:58:25.405Z,1.70
2023-03-12T10:01:49.854Z,1.60
2023-03-12T10:05:07.104Z,1.57
2023-03-12T10:08:35.277Z,1.80
2023-03-12T10:11:59.056Z,1.60
2023-03-12T10:15:49.639Z,1.60
2023-03-12T10:18:54.554Z,1.20
2023-03-12T10:22:34.462Z,1.40
2023-03-12T10:25:47.035Z,2.07
2023-03-12T10:28:52.455Z,2.10
2023-03-12T10:32:25.253Z,2.20
2023-03-12T10:35:30.830Z,1.90
2023-03-12T10:38:32.762Z,1.90
2023-03-12T10:41:35.145Z,2.30
2023-03-12T10:44:37.126Z,1.80
2023-03-12T10:47:40.147Z,1.80
2023-03-12T10:50:42.039Z,1.83
2023-03-12T10:53:48.594Z,1.83
2023-03-12T10:56:51.579Z,2.03
2023-03-12T11:00:07.802Z,1.70
2023-03-12T11:03:21.980Z,1.90
2023-03-12T11:06:28.325Z,1.80
2023-03-12T11:09:30.919Z,1.93
2023-03-12T11:12:36.454Z,2.00
2023-03-12T11:15:38.399Z,1.60
2023-03-12T11:18:40.774Z,2.20
2023-03-12T11:21:58.172Z,1.77
2023-03-12T11:25:21.586Z,1.60
2023-03-12T11:28:26.086Z,1.97
2023-03-12T11:31:32.888Z,1.90
2023-03-12T11:34:37.485Z,1.70
2023-03-12T11:37:59.259Z,2.00
2023-03-12T11:41:32.353Z,1.93
2023-03-12T11:45:04.669Z,1.70
2023-03-12T11:48:36.678Z,1.90
2023-03-12T11:51:53.540Z,2.40
2023-03-12T11:55:38.765Z,2.80
2023-03-12T11:58:52.842Z,2.30
2023-03-12T12:02:16.654Z,2.70
2023-03-12T12:05:27.776Z,2.30
2023-03-12T12:08:29.562Z,2.47
2023-03-12T12:12:06.492Z,2.40
2023-03-12T12:15:16.596Z,2.03
2023-03-12T12:18:32.655Z,2.40
2023-03-12T12:21:50.550Z,1.83
2023-03-12T12:25:12.732Z,2.27
2023-03-12T12:28:48.948Z,3.23
2023-03-12T12:31:57.421Z,2.10
2023-03-12T12:35:37.738Z,2.03
2023-03-12T12:38:56.793Z,1.93
2023-03-12T12:42:03.336Z,2.30
2023-03-12T12:45:06.395Z,1.77
2023-03-12T12:48:19.895Z,1.70
2023-03-12T12:51:26.994Z,2.10
2023-03-12T12:54:28.828Z,1.67
2023-03-12T12:57:37.334Z,1.97
2023-03-12T13:00:50.568Z,1.97
2023-03-12T13:03:58.159Z,1.80
2023-03-12T13:07:12.264Z,1.90
2023-03-12T13:10:53.103Z,1.80
2023-03-12T13:14:03.776Z,1.40
2023-03-12T13:17:30.374Z,1.43
2023-03-12T13:20:47.139Z,2.10
2023-03-12T13:24:18.441Z,1.70
2023-03-12T13:27:24.111Z,1.90
2023-03-12T13:30:50.803Z,1.53
2023-03-12T13:33:54.657Z,1.17
2023-03-12T13:37:03.292Z,2.10
2023-03-12T13:40:30.950Z,1.20
2023-03-12T13:43:35.900Z,1.20
2023-03-12T13:46:40.283Z,1.30
2023-03-12T13:49:50.647Z,1.77
2023-03-12T13:53:07.301Z,3.23
2023-03-12T13:56:15.735Z,4.57
2023-03-12T13:59:18.293Z,2.60
2023-03-12T14:02:35.818Z,1.23
2023-03-12T14:06:04.870Z,1.33
2023-03-12T14:09:06.691Z,1.27
2023-03-12T14:12:30.391Z,1.20
2023-03-12T14:15:39.904Z,1.37
2023-03-12T14:18:44.167Z,1.73
2023-03-12T14:21:48.398Z,1.50
2023-03-12T14:25:06.492Z,1.20
2023-03-12T14:28:22.701Z,1.40
2023-03-12T14:31:25.459Z,1.50
2023-03-12T14:34:30.932Z,1.90
2023-03-12T14:37:37.543Z,1.97
2023-03-12T14:40:47.060Z,2.17
2023-03-12T14:43:52.858Z,2.10
2023-03-12T14:47:03.962Z,2.07
2023-03-12T14:50:07.048Z,1.87
2023-03-12T14:53:19.306Z,1.70
2023-03-12T14:56:30.797Z,2.20
2023-03-12T14:59:39.293Z,1.50
2023-03-12T15:02:43.557Z,1.40
2023-03-12T15:05:50.858Z,0.93
2023-03-12T15:08:53.081Z,1.50
2023-03-12T15:12:01.320Z,1.73
2023-03-12T15:15:11.467Z,1.47
2023-03-12T15:18:30.701Z,1.10
2023-03-12T15:21:35.180Z,1.30
2023-03-12T15:24:40.968Z,1.20
2023-03-12T15:27:42.863Z,1.00
2023-03-12T15:30:44.949Z,1.40
2023-03-12T15:34:00.849Z,1.53
2023-03-12T15:37:33.960Z,1.80
2023-03-12T15:40:37.824Z,1.27
2023-03-12T15:43:44.140Z,1.53
2023-03-12T15:46:55.232Z,1.60
2023-03-12T15:50:00.599Z,1.90
2023-03-12T15:53:06.623Z,1.60
2023-03-12T15:56:11.246Z,1.63
2023-03-12T15:59:16.008Z,1.70
2023-03-12T16:02:36.555Z,1.47
2023-03-12T16:05:40.072Z,1.50
2023-03-12T16:08:46.662Z,2.27
2023-03-12T16:11:48.901Z,2.80
2023-03-12T16:14:50.811Z,3.73
2023-03-12T16:17:52.730Z,3.00
2023-03-12T16:20:54.832Z,3.30
2023-03-12T16:23:56.621Z,3.13
2023-03-12T16:26:59.137Z,4.63
2023-03-12T16:30:02.058Z,5.20
2023-03-12T16:33:09.088Z,3.67
2023-03-12T16:36:16.905Z,3.90
2023-03-12T16:39:19.152Z,4.03
2023-03-12T16:42:21.519Z,3.30
2023-03-12T16:45:23.440Z,5.27
2023-03-12T16:48:26.656Z,4.53
2023-03-12T16:51:31.357Z,3.47
2023-03-12T16:54:33.203Z,2.90
2023-03-12T16:57:40.718Z,1.70
2023-03-12T17:00:42.680Z,2.07
2023-03-12T17:03:45.865Z,1.70
2023-03-12T17:06:47.656Z,1.30
2023-03-12T17:09:49.919Z,1.57
2023-03-12T17:12:53.019Z,1.83
2023-03-12T17:15:55.741Z,1.60
2023-03-12T17:18:58.061Z,1.53
2023-03-12T17:22:00.990Z,1.53
2023-03-12T17:25:03.813Z,1.07
2023-03-12T17:28:07.000Z,1.17
2023-03-12T17:31:09.609Z,1.20
2023-03-12T17:34:12.022Z,1.23
2023-03-12T17:37:13.902Z,1.20
2023-03-12T17:40:16.992Z,1.17
2023-03-12T17:43:18.855Z,1.43
2023-03-12T17:46:21.182Z,2.20
2023-03-12T17:49:24.480Z,1.13
2023-03-12T17:52:26.684Z,1.40
2023-03-12T17:55:28.816Z,0.90
2023-03-12T17:58:30.683Z,0.97
2023-03-12T18:01:32.570Z,1.00
2023-03-12T18:04:34.672Z,0.80
2023-03-12T18:07:36.946Z,0.80
2023-03-12T18:10:40.795Z,0.77
2023-03-12T18:13:42.699Z,1.10
2023-03-12T18:16:44.696Z,1.33
2023-03-12T18:19:46.524Z,0.97
2023-03-12T18:22:48.434Z,0.80
2023-03-12T18:25:50.262Z,0.60
2023-03-12T18:28:52.662Z,0.80
2023-03-12T18:31:54.560Z,0.87
2023-03-12T18:34:57.039Z,1.17
2023-03-12T18:37:59.695Z,0.63
2023-03-12T18:41:10.706Z,1.33
2023-03-12T18:44:13.712Z,0.83
2023-03-12T18:47:15.573Z,1.47
2023-03-12T18:50:17.890Z,0.70
2023-03-12T18:53:19.929Z,0.90
2023-03-12T18:56:21.815Z,0.90
2023-03-12T18:59:23.643Z,0.97
2023-03-12T19:02:25.650Z,0.83
2023-03-12T19:05:28.241Z,0.70
2023-03-12T19:08:30.178Z,0.70
2023-03-12T19:11:32.193Z,1.10
2023-03-12T19:14:34.000Z,0.90
2023-03-12T19:17:36.857Z,0.80
2023-03-12T19:20:38.760Z,0.67
2023-03-12T19:23:41.624Z,0.50
2023-03-12T19:26:43.449Z,0.50
2023-03-12T19:29:45.341Z,1.00
2023-03-12T19:32:47.160Z,0.87
2023-03-12T19:35:51.228Z,1.57
2023-03-12T19:38:53.252Z,1.20
2023-03-12T19:41:55.180Z,0.80
2023-03-12T19:44:56.973Z,0.93
2023-03-12T19:47:58.892Z,0.70
2023-03-12T19:51:08.871Z,0.80
2023-03-12T19:54:11.242Z,1.07
2023-03-12T19:57:13.200Z,1.60
2023-03-12T20:00:15.814Z,1.40
2023-03-12T20:03:17.909Z,1.40
2023-03-12T20:06:19.874Z,1.70
2023-03-12T20:09:22.436Z,1.00
2023-03-12T20:12:24.736Z,1.13
2023-03-12T20:15:27.294Z,1.37
2023-03-12T20:18:33.514Z,1.77
2023-03-12T20:21:35.568Z,1.20
2023-03-12T20:24:37.840Z,1.27
2023-03-12T20:27:40.917Z,1.00
2023-03-12T20:30:42.942Z,1.33
2023-03-12T20:33:49.851Z,1.20
2023-03-12T20:36:53.264Z,1.37
2023-03-12T20:39:55.138Z,1.10
2023-03-12T20:42:57.002Z,1.47
2023-03-12T20:45:58.842Z,1.20
2023-03-12T20:49:00.785Z,1.30
2023-03-12T20:52:04.168Z,1.10
2023-03-12T20:55:06.435Z,1.10
2023-03-12T20:58:08.366Z,1.30
2023-03-12T21:01:10.861Z,0.80
2023-03-12T21:04:12.845Z,1.40
2023-03-12T21:07:14.774Z,1.00
2023-03-12T21:10:16.776Z,1.30
2023-03-12T21:13:20.244Z,1.30
2023-03-12T21:16:22.656Z,1.00
2023-03-12T21:19:24.657Z,1.17
2023-03-12T21:22:29.962Z,1.27
2023-03-12T21:25:39.616Z,1.10
2023-03-12T21:28:41.622Z,1.60
2023-03-12T21:31:43.490Z,1.30
2023-03-12T21:34:46.804Z,1.60
2023-03-12T21:37:48.681Z,2.00
2023-03-12T21:40:50.596Z,1.60
2023-03-12T21:43:52.593Z,1.77
2023-03-12T21:46:54.878Z,1.63
2023-03-12T21:53:23.589Z,1.10
2023-03-12T21:56:30.462Z,1.00
2023-03-12T21:59:32.500Z,1.20
2023-03-12T22:02:34.439Z,1.00
2023-03-12T22:05:36.350Z,0.90
2023-03-12T22:08:38.856Z,0.87
2023-03-12T22:11:40.770Z,0.50
2023-03-12T22:14:43.572Z,1.00
2023-03-12T22:17:45.658Z,0.70
2023-03-12T22:20:58.504Z,0.70
2023-03-12T22:24:02.126Z,0.60
2023-03-12T22:27:06.716Z,0.80
2023-03-12T22:30:10.380Z,0.53
2023-03-12T22:33:12.473Z,0.57
2023-03-12T22:36:16.087Z,1.20
2023-03-12T22:39:17.952Z,0.70
2023-03-12T22:42:19.843Z,0.60
2023-03-12T22:45:22.107Z,0.43
2023-03-12T22:48:24.663Z,0.50
2023-03-12T22:51:28.346Z,0.70
2023-03-12T22:54:30.587Z,0.60
2023-03-12T22:57:37.158Z,0.67
2023-03-12T23:00:39.120Z,2.23
2023-03-12T23:03:42.678Z,1.00
2023-03-12T23:06:44.557Z,0.80
2023-03-12T23:09:47.961Z,0.93
2023-03-12T23:12:49.837Z,0.90
2023-03-12T23:15:52.377Z,0.90
2023-03-12T23:18:55.460Z,0.87
2023-03-12T23:21:57.392Z,0.90
2023-03-12T23:24:59.306Z,1.17
2023-03-12T23:28:01.111Z,1.10
2023-03-12T23:34:27.601Z,2.60
2023-03-12T23:37:29.508Z,2.93
2023-03-12T23:40:31.578Z,2.77
2023-03-12T23:43:33.505Z,2.93
2023-03-12T23:46:35.575Z,2.57
2023-03-12T23:49:37.366Z,2.73
2023-03-12T23:52:39.536Z,1.30
2023-03-12T23:55:41.326Z,1.20
2023-03-12T23:58:44.576Z,4.03
